Time;durP1;ratioP1;P1;durP2;ratioP2;P2;SDS_P1;SDS_P2;PMS_P1;PMS_P2;Temp;Humidity;BMP_temperature;BMP_pressure;BME280_temperature;BME280_humidity;BME280_pressure;Samples;Min_cycle;Max_cycle;Signal;HPM_P1;HPM_P2
2022/07/21 00:02:29;;;;;;;18.93;15.67;;;23.10;99.90;;;;;;7375588;19;21005;-49
2022/07/21 00:05:01;;;;;;;20.50;14.90;;;23.10;99.90;;;;;;7374628;19;20410;-49
2022/07/21 00:07:31;;;;;;;17.83;15.23;;;23.10;99.90;;;;;;7387112;19;20415;-49
2022/07/21 00:10:00;;;;;;;16.73;14.73;;;23.20;99.90;;;;;;7388101;19;20395;-49
2022/07/21 00:12:32;;;;;;;16.80;15.07;;;23.10;99.90;;;;;;7386093;19;20372;-49
2022/07/21 00:15:02;;;;;;;17.33;15.47;;;23.10;99.90;;;;;;7385277;19;20376;-49
2022/07/21 00:17:34;;;;;;;17.47;14.73;;;23.00;99.90;;;;;;7389163;19;20800;-49
2022/07/21 00:20:09;;;;;;;15.50;13.90;;;22.80;99.90;;;;;;7388475;19;21153;-49
2022/07/21 00:22:38;;;;;;;18.03;16.23;;;22.60;99.90;;;;;;7389003;19;20399;-49
2022/07/21 00:25:09;;;;;;;17.03;15.30;;;22.50;99.90;;;;;;7380518;19;20364;-49
2022/07/21 00:27:39;;;;;;;17.97;14.67;;;22.30;99.90;;;;;;7385956;19;20377;-49
2022/07/21 00:30:11;;;;;;;18.47;15.80;;;22.10;99.90;;;;;;7384335;19;20971;-49
2022/07/21 00:32:43;;;;;;;18.17;16.27;;;22.10;99.90;;;;;;7386345;19;20371;-49
2022/07/21 00:35:16;;;;;;;19.17;17.17;;;22.30;99.90;;;;;;7387423;19;20380;-49
2022/07/21 00:37:46;;;;;;;20.53;16.77;;;22.00;99.90;;;;;;7391635;19;20380;-49
2022/07/21 00:40:17;;;;;;;18.60;16.50;;;21.70;99.90;;;;;;7387919;19;20368;-49
2022/07/21 00:42:47;;;;;;;19.30;16.87;;;21.60;99.90;;;;;;7388170;19;20365;-49
2022/07/21 00:45:18;;;;;;;19.07;17.07;;;21.60;99.90;;;;;;7381767;19;20380;-49
2022/07/21 00:47:50;;;;;;;18.83;16.83;;;21.60;99.90;;;;;;7385931;19;20376;-49
2022/07/21 00:50:23;;;;;;;18.87;16.77;;;21.70;99.90;;;;;;7384714;19;20428;-49
2022/07/21 00:52:53;;;;;;;20.00;17.20;;;21.90;99.90;;;;;;7384939;19;20383;-49
2022/07/21 00:55:26;;;;;;;19.60;15.30;;;21.90;99.90;;;;;;7386022;19;20388;-49
2022/07/21 00:57:58;;;;;;;18.83;16.83;;;21.90;99.90;;;;;;7379282;19;20387;-49
2022/07/21 01:00:30;;;;;;;18.20;15.80;;;22.00;99.90;;;;;;7380521;19;20431;-45
2022/07/21 01:03:00;;;;;;;17.67;15.90;;;22.00;99.90;;;;;;7387597;19;20785;-45
2022/07/21 01:05:32;;;;;;;18.20;15.60;;;21.80;99.90;;;;;;7383519;19;20405;-46
2022/07/21 01:08:02;;;;;;;20.37;16.40;;;22.00;99.90;;;;;;7382365;19;20375;-45
2022/07/21 01:10:33;;;;;;;19.67;15.27;;;22.30;99.90;;;;;;7388512;19;20380;-46
2022/07/21 01:13:04;;;;;;;17.10;14.97;;;22.80;99.90;;;;;;7382389;19;20387;-45
2022/07/21 01:15:33;;;;;;;17.87;14.20;;;23.10;99.90;;;;;;7378982;19;20928;-46
2022/07/21 01:18:03;;;;;;;14.97;13.03;;;23.40;99.90;;;;;;7380933;19;20701;-46
2022/07/21 01:20:38;;;;;;;15.10;13.67;;;23.60;99.90;;;;;;7382868;19;20376;-46
2022/07/21 01:23:10;;;;;;;15.03;13.13;;;23.70;99.90;;;;;;7385499;19;20813;-46
2022/07/21 01:25:40;;;;;;;16.50;14.40;;;23.70;99.90;;;;;;7384633;19;20396;-46
2022/07/21 01:28:09;;;;;;;17.57;13.40;;;23.80;99.90;;;;;;7380067;19;20482;-46
2022/07/21 01:30:38;;;;;;;14.00;12.70;;;23.70;99.90;;;;;;7387371;19;20484;-46
2022/07/21 01:33:08;;;;;;;15.60;14.00;;;23.70;99.90;;;;;;7387721;19;20379;-46
2022/07/21 01:35:37;;;;;;;14.77;13.17;;;23.50;99.90;;;;;;7387857;19;20369;-46
2022/07/21 01:41:28;;;;;;;15.87;14.37;;;23.40;99.90;;;;;;7384253;19;20376;-46
2022/07/21 01:43:42;;;;;;;16.17;13.80;;;22.90;99.90;;;;;;7381778;19;20922;-46
2022/07/21 01:46:13;;;;;;;15.70;13.30;;;22.70;99.90;;;;;;7383678;19;20488;-46
2022/07/21 01:48:46;;;;;;;17.70;14.70;;;22.40;99.90;;;;;;7383736;19;20393;-46
2022/07/21 01:51:16;;;;;;;15.57;14.03;;;22.30;99.90;;;;;;7388201;19;20376;-46
2022/07/21 01:53:50;;;;;;;15.27;13.67;;;22.10;99.90;;;;;;7383723;19;20726;-46
2022/07/21 01:56:21;;;;;;;15.70;14.10;;;22.10;99.90;;;;;;7386084;19;20420;-45
2022/07/21 01:58:52;;;;;;;14.77;13.00;;;22.00;99.90;;;;;;7378422;19;20383;-46
2022/07/21 02:01:23;;;;;;;14.97;13.17;;;22.20;99.90;;;;;;7381377;19;20491;-45
2022/07/21 02:03:53;;;;;;;19.10;13.30;;;21.90;99.90;;;;;;7385464;19;20776;-45
2022/07/21 02:06:22;;;;;;;13.57;10.80;;;21.80;99.90;;;;;;7381072;19;21135;-45
2022/07/21 02:08:54;;;;;;;10.97;9.67;;;22.30;99.90;;;;;;7386983;19;20380;-45
2022/07/21 02:11:25;;;;;;;12.63;10.70;;;22.60;99.90;;;;;;7384632;19;20380;-46
2022/07/21 02:13:54;;;;;;;16.53;12.47;;;22.40;99.90;;;;;;7381980;19;20387;-45
2022/07/21 02:16:24;;;;;;;13.13;11.50;;;22.40;99.90;;;;;;7381111;19;20377;-46
2022/07/21 02:18:56;;;;;;;11.43;10.07;;;22.60;99.90;;;;;;7384207;19;21883;-46
2022/07/21 02:21:25;;;;;;;12.13;10.77;;;22.50;99.90;;;;;;7378555;19;20405;-45
2022/07/21 02:23:57;;;;;;;11.90;10.43;;;22.10;99.90;;;;;;7381563;19;20372;-45
2022/07/21 02:26:27;;;;;;;12.00;10.43;;;21.90;99.90;;;;;;7379697;19;20929;-45
2022/07/21 02:28:56;;;;;;;13.00;11.67;;;22.10;99.90;;;;;;7372628;19;20966;-46
2022/07/21 02:31:26;;;;;;;11.07;10.00;;;22.10;99.90;;;;;;7379481;19;20758;-46
2022/07/21 02:33:55;;;;;;;11.83;10.47;;;22.20;99.90;;;;;;7379807;19;20487;-46
2022/07/21 02:36:24;;;;;;;11.00;9.03;;;22.50;99.90;;;;;;7380602;19;20697;-46
2022/07/21 02:38:56;;;;;;;14.23;10.33;;;22.60;99.90;;;;;;7382873;19;20380;-46
2022/07/21 02:41:26;;;;;;;12.27;10.70;;;22.50;99.90;;;;;;7380556;19;20372;-45
2022/07/21 02:43:55;;;;;;;16.20;10.50;;;22.30;99.90;;;;;;7383215;19;20369;-45
2022/07/21 02:46:25;;;;;;;11.43;10.00;;;22.20;99.90;;;;;;7380986;19;20740;-45
2022/07/21 02:48:55;;;;;;;12.17;9.70;;;22.40;99.90;;;;;;7384757;19;20408;-46
2022/07/21 02:51:26;;;;;;;12.77;10.23;;;22.50;99.90;;;;;;7376088;19;20365;-46
2022/07/21 02:53:58;;;;;;;11.00;9.77;;;22.40;99.90;;;;;;7387034;19;20379;-45
2022/07/21 02:56:28;;;;;;;12.20;9.50;;;22.30;99.90;;;;;;7378274;19;20636;-45
2022/07/21 02:59:00;;;;;;;10.50;9.40;;;22.30;99.90;;;;;;7385487;19;20444;-45
2022/07/21 03:01:29;;;;;;;11.87;9.57;;;22.00;99.90;;;;;;7376069;19;20438;-45
2022/07/21 03:04:01;;;;;;;10.40;9.30;;;22.00;99.90;;;;;;7381737;19;20380;-45
2022/07/21 03:06:33;;;;;;;10.30;9.30;;;22.30;99.90;;;;;;7379332;19;20383;-45
2022/07/21 03:09:05;;;;;;;9.53;8.63;;;22.30;99.90;;;;;;7376667;19;20368;-45
2022/07/21 03:11:34;;;;;;;11.00;9.23;;;22.30;99.90;;;;;;7380203;19;20376;-46
2022/07/21 03:14:04;;;;;;;9.67;8.73;;;22.20;99.90;;;;;;7381526;19;20922;-45
2022/07/21 03:16:35;;;;;;;16.00;10.03;;;22.40;99.90;;;;;;7381005;19;20380;-45
2022/07/21 03:19:04;;;;;;;10.40;8.57;;;22.40;99.90;;;;;;7385140;19;20380;-45
2022/07/21 03:21:33;;;;;;;9.70;8.67;;;22.70;99.90;;;;;;7383712;19;20757;-46
2022/07/21 03:24:06;;;;;;;13.00;8.50;;;22.90;99.90;;;;;;7378969;19;20910;-45
2022/07/21 03:26:38;;;;;;;11.03;9.10;;;22.90;99.90;;;;;;7378093;19;20384;-46
2022/07/21 03:29:09;;;;;;;8.90;8.00;;;22.90;99.90;;;;;;7383364;19;20376;-46
2022/07/21 03:31:38;;;;;;;10.60;8.80;;;22.60;99.90;;;;;;7381006;19;20368;-46
2022/07/21 03:34:11;;;;;;;10.23;7.93;;;22.60;99.90;;;;;;7382849;19;20384;-46
2022/07/21 03:36:40;;;;;;;9.50;7.53;;;22.50;99.90;;;;;;7384131;19;20364;-45
2022/07/21 03:39:12;;;;;;;10.77;8.37;;;22.60;99.90;;;;;;7378824;19;20383;-45
2022/07/21 03:41:42;;;;;;;8.90;8.00;;;22.70;99.90;;;;;;7385085;19;20419;-49
2022/07/21 03:44:11;;;;;;;11.27;8.20;;;22.50;99.90;;;;;;7388189;19;20384;-49
2022/07/21 03:46:41;;;;;;;8.53;7.63;;;22.70;99.90;;;;;;7386306;19;21036;-49
2022/07/21 03:49:10;;;;;;;10.93;7.03;;;23.00;99.90;;;;;;7391239;19;20383;-49
2022/07/21 03:51:39;;;;;;;9.33;7.17;;;23.10;99.90;;;;;;7389559;19;20736;-49
2022/07/21 03:54:11;;;;;;;8.90;8.00;;;23.20;99.90;;;;;;7385329;19;20739;-50
2022/07/21 03:56:41;;;;;;;10.87;8.43;;;23.50;99.90;;;;;;7389291;19;20375;-49
2022/07/21 03:59:13;;;;;;;8.83;7.53;;;23.50;99.90;;;;;;7386127;19;20765;-49
2022/07/21 04:01:45;;;;;;;9.73;8.73;;;23.60;99.90;;;;;;7383564;19;20387;-49
2022/07/21 04:04:14;;;;;;;9.50;8.13;;;23.30;99.90;;;;;;7387303;19;20985;-49
2022/07/21 04:06:43;;;;;;;8.70;7.90;;;23.50;99.90;;;;;;7380729;19;20383;-49
2022/07/21 04:09:17;;;;;;;9.07;8.10;;;23.70;99.90;;;;;;7387353;19;20368;-49
2022/07/21 04:11:46;;;;;;;9.00;8.13;;;23.70;99.90;;;;;;7387782;19;20421;-46
2022/07/21 04:14:16;;;;;;;8.83;7.93;;;23.80;99.90;;;;;;7380858;19;20452;-46
2022/07/21 04:16:45;;;;;;;9.53;8.63;;;23.90;99.90;;;;;;7388995;19;20376;-46
2022/07/21 04:19:15;;;;;;;10.40;8.90;;;23.50;99.90;;;;;;7386534;19;20392;-46
2022/07/21 04:21:45;;;;;;;10.83;9.37;;;23.20;99.90;;;;;;7392604;19;20724;-45
2022/07/21 04:24:20;;;;;;;12.47;9.30;;;23.10;99.90;;;;;;7385281;19;20380;-45
2022/07/21 04:26:49;;;;;;;10.10;8.23;;;22.70;99.90;;;;;;7388986;19;20399;-46
2022/07/21 04:29:19;;;;;;;9.20;8.40;;;22.40;99.90;;;;;;7389197;19;20458;-45
2022/07/21 04:31:48;;;;;;;10.60;8.13;;;22.40;99.90;;;;;;7379405;19;20416;-45
2022/07/21 04:34:18;;;;;;;11.07;8.33;;;22.40;99.90;;;;;;7381991;19;20383;-47
2022/07/21 04:36:47;;;;;;;10.30;8.90;;;22.10;99.90;;;;;;7382395;19;20435;-46
2022/07/21 04:39:20;;;;;;;11.00;8.13;;;21.90;99.90;;;;;;7388006;19;20364;-46
2022/07/21 04:41:49;;;;;;;9.83;7.80;;;22.00;99.90;;;;;;7378675;19;20384;-45
2022/07/21 04:44:21;;;;;;;10.23;9.07;;;22.00;99.90;;;;;;7382879;19;20372;-45
2022/07/21 04:46:53;;;;;;;10.13;9.13;;;21.80;99.90;;;;;;7386666;19;20480;-45
2022/07/21 04:49:23;;;;;;;10.83;9.57;;;21.60;99.90;;;;;;7384505;19;20368;-45
2022/07/21 04:51:53;;;;;;;10.43;9.20;;;21.20;99.90;;;;;;7386595;19;20376;-45
2022/07/21 04:54:25;;;;;;;12.67;10.47;;;21.20;99.90;;;;;;7388104;19;20371;-45
2022/07/21 04:56:55;;;;;;;10.27;9.27;;;21.20;99.90;;;;;;7386805;19;20895;-45
2022/07/21 04:59:24;;;;;;;10.77;9.67;;;21.00;99.90;;;;;;7387039;19;20728;-45
2022/07/21 05:01:56;;;;;;;11.47;10.27;;;20.70;99.90;;;;;;7387436;19;20413;-45
2022/07/21 05:04:25;;;;;;;13.90;9.70;;;20.80;99.90;;;;;;7385321;19;20391;-45
2022/07/21 05:06:55;;;;;;;12.77;9.63;;;21.10;99.90;;;;;;7385196;19;20735;-45
2022/07/21 05:09:28;;;;;;;13.30;10.00;;;21.00;99.90;;;;;;7383254;19;20455;-49
2022/07/21 05:11:57;;;;;;;14.23;11.10;;;21.20;99.90;;;;;;7385809;19;20375;-49
2022/07/21 05:14:29;;;;;;;11.87;10.27;;;21.10;99.90;;;;;;7377270;19;20376;-49
2022/07/21 05:16:58;;;;;;;10.50;9.50;;;21.00;99.90;;;;;;7378269;19;20383;-49
2022/07/21 05:19:28;;;;;;;12.20;10.33;;;21.10;99.90;;;;;;7386041;19;20376;-49
2022/07/21 05:21:57;;;;;;;11.47;10.23;;;21.20;99.90;;;;;;7384411;19;20826;-49
2022/07/21 05:24:29;;;;;;;11.70;10.23;;;21.40;99.90;;;;;;7386060;19;20383;-49
2022/07/21 05:26:58;;;;;;;10.40;9.33;;;21.40;99.90;;;;;;7385544;19;20984;-49
2022/07/21 05:29:28;;;;;;;14.23;10.57;;;21.60;99.90;;;;;;7388287;19;20384;-49
2022/07/21 05:31:57;;;;;;;11.97;9.20;;;21.60;99.90;;;;;;7387323;19;20376;-49
2022/07/21 05:34:27;;;;;;;11.90;9.80;;;21.70;99.90;;;;;;7386766;19;20917;-49
2022/07/21 05:36:56;;;;;;;10.13;9.03;;;21.80;99.90;;;;;;7389831;19;20913;-49
2022/07/21 05:39:25;;;;;;;10.00;8.60;;;22.00;99.90;;;;;;7385991;19;20368;-46
2022/07/21 05:41:57;;;;;;;11.30;9.43;;;22.10;99.90;;;;;;7389100;19;20372;-46
2022/07/21 05:44:27;;;;;;;9.87;8.97;;;22.30;99.90;;;;;;7390552;19;20388;-45
2022/07/21 05:46:59;;;;;;;9.37;8.47;;;22.60;99.90;;;;;;7387426;19;20388;-46
2022/07/21 05:49:28;;;;;;;11.40;8.50;;;22.50;99.90;;;;;;7386654;19;20387;-45
2022/07/21 05:51:58;;;;;;;10.70;8.70;;;22.80;99.90;;;;;;7387028;19;20844;-45
2022/07/21 05:54:27;;;;;;;9.77;8.20;;;23.00;99.90;;;;;;7383590;19;20417;-46
2022/07/21 05:57:02;;;;;;;10.53;9.50;;;23.00;99.90;;;;;;7383040;19;20424;-46
2022/07/21 05:59:34;;;;;;;11.37;8.13;;;23.10;99.90;;;;;;7385064;19;20419;-45
2022/07/21 06:02:05;;;;;;;12.07;10.60;;;23.30;99.90;;;;;;7386530;19;20383;-46
2022/07/21 06:04:35;;;;;;;9.70;8.70;;;23.40;99.90;;;;;;7388088;19;20388;-46
2022/07/21 06:07:04;;;;;;;11.27;9.50;;;23.40;99.90;;;;;;7383046;19;20396;-45
2022/07/21 06:09:34;;;;;;;10.47;9.37;;;23.20;99.90;;;;;;7385094;19;20376;-45
2022/07/21 06:12:06;;;;;;;9.67;8.70;;;22.90;99.90;;;;;;7387083;19;20387;-46
2022/07/21 06:14:36;;;;;;;9.40;8.33;;;23.00;99.90;;;;;;7388376;19;20360;-46
2022/07/21 06:17:06;;;;;;;10.63;9.57;;;23.20;99.90;;;;;;7385862;19;20380;-46
2022/07/21 06:19:35;;;;;;;10.83;9.20;;;23.30;99.90;;;;;;7386796;19;20383;-46
2022/07/21 06:22:05;;;;;;;11.53;10.37;;;23.30;99.90;;;;;;7386534;19;20387;-45
2022/07/21 06:24:34;;;;;;;10.60;9.13;;;23.20;99.90;;;;;;7385943;19;20368;-45
2022/07/21 06:27:06;;;;;;;11.13;9.40;;;23.20;99.90;;;;;;7381069;19;20424;-46
2022/07/21 06:29:36;;;;;;;11.73;8.70;;;23.40;99.90;;;;;;7383403;19;20922;-46
2022/07/21 06:32:05;;;;;;;9.80;8.20;;;23.50;99.90;;;;;;7387164;19;20486;-46
2022/07/21 06:34:35;;;;;;;9.67;8.50;;;23.60;99.90;;;;;;7386254;19;20890;-46
2022/07/21 06:37:04;;;;;;;13.20;8.60;;;23.80;99.90;;;;;;7383129;19;20816;-46
2022/07/21 06:39:39;;;;;;;9.70;8.20;;;24.00;99.90;;;;;;7384281;19;20754;-45
2022/07/21 06:42:11;;;;;;;9.70;8.80;;;24.20;99.90;;;;;;7385012;19;21012;-45
2022/07/21 06:44:41;;;;;;;10.27;9.00;;;24.30;99.90;;;;;;7384804;19;20376;-46
2022/07/21 06:47:10;;;;;;;10.07;9.07;;;24.30;99.90;;;;;;7382036;19;20929;-46
2022/07/21 06:49:39;;;;;;;12.33;8.90;;;24.50;99.90;;;;;;7382077;19;20364;-46
2022/07/21 06:52:09;;;;;;;9.93;8.93;;;24.30;99.90;;;;;;7382628;19;20388;-46
2022/07/21 06:54:39;;;;;;;10.40;7.40;;;24.30;99.90;;;;;;7384463;19;20380;-46
2022/07/21 06:57:11;;;;;;;9.30;8.43;;;24.40;99.90;;;;;;7383853;19;20702;-46
2022/07/21 06:59:40;;;;;;;10.13;8.73;;;24.40;99.90;;;;;;7380639;19;20469;-46
2022/07/21 07:02:10;;;;;;;9.27;7.53;;;24.50;99.90;;;;;;7386248;19;20372;-46
2022/07/21 07:04:39;;;;;;;9.40;8.40;;;24.70;98.00;;;;;;7386320;19;20404;-46
2022/07/21 07:07:09;;;;;;;8.73;7.73;;;24.80;96.60;;;;;;7380011;19;20372;-46
2022/07/21 07:09:41;;;;;;;7.80;7.07;;;24.90;95.40;;;;;;7384333;19;20961;-46
2022/07/21 07:12:13;;;;;;;11.87;8.40;;;25.00;95.60;;;;;;7383260;19;20405;-46
2022/07/21 07:14:42;;;;;;;8.70;7.90;;;24.90;97.00;;;;;;7382428;19;20524;-46
2022/07/21 07:17:19;;;;;;;8.87;7.93;;;24.70;97.00;;;;;;7391031;19;20395;-46
2022/07/21 07:19:48;;;;;;;8.30;7.50;;;24.40;99.10;;;;;;7391732;19;20421;-46
2022/07/21 07:22:18;;;;;;;7.63;6.83;;;24.50;99.30;;;;;;7386649;19;20898;-46
2022/07/21 07:24:48;;;;;;;8.10;7.30;;;24.90;97.80;;;;;;7386951;19;20380;-46
2022/07/21 07:27:22;;;;;;;9.37;7.70;;;25.00;96.70;;;;;;7380329;19;20408;-46
2022/07/21 07:29:54;;;;;;;7.80;7.00;;;25.20;95.30;;;;;;7386630;19;20959;-46
2022/07/21 07:32:23;;;;;;;8.43;7.63;;;25.50;93.50;;;;;;7386980;19;20383;-47
2022/07/21 07:34:53;;;;;;;7.47;6.30;;;25.60;93.10;;;;;;7389487;19;20411;-47
2022/07/21 07:37:22;;;;;;;8.43;6.93;;;25.70;92.50;;;;;;7386598;19;20372;-47
2022/07/21 07:39:52;;;;;;;7.97;7.27;;;25.90;91.90;;;;;;7389612;19;20372;-47
2022/07/21 07:42:27;;;;;;;7.83;7.03;;;26.00;92.10;;;;;;7383728;19;20416;-47
2022/07/21 07:44:57;;;;;;;8.47;7.50;;;26.00;90.70;;;;;;7389265;19;20379;-47
2022/07/21 07:47:27;;;;;;;8.63;7.73;;;26.00;90.50;;;;;;7389215;19;20485;-46
2022/07/21 07:49:56;;;;;;;8.60;7.60;;;26.00;89.90;;;;;;7391456;19;20376;-47
2022/07/21 07:52:28;;;;;;;9.70;7.00;;;26.00;90.00;;;;;;7390889;19;20379;-46
2022/07/21 07:54:57;;;;;;;9.90;7.33;;;26.10;89.40;;;;;;7389725;19;20369;-47
2022/07/21 07:57:33;;;;;;;7.93;7.13;;;26.10;83.90;;;;;;7391590;19;20467;-46
2022/07/21 08:00:02;;;;;;;8.33;6.97;;;26.20;83.80;;;;;;7387259;19;20428;-47
2022/07/21 08:02:41;;;;;;;7.10;6.40;;;26.40;84.10;;;;;;7392739;19;20372;-47
2022/07/21 08:05:11;;;;;;;7.67;6.70;;;26.70;82.10;;;;;;7390134;19;20405;-47
2022/07/21 08:07:42;;;;;;;7.83;6.97;;;26.80;80.80;;;;;;7385716;19;20464;-47
2022/07/21 08:10:14;;;;;;;7.90;6.30;;;26.90;75.40;;;;;;7387840;19;20905;-47
2022/07/21 08:12:46;;;;;;;7.90;7.17;;;27.10;75.80;;;;;;7389490;19;20415;-47
2022/07/21 08:15:16;;;;;;;6.83;6.17;;;27.20;75.80;;;;;;7389411;19;20372;-47
2022/07/21 08:17:45;;;;;;;7.83;6.90;;;27.40;76.90;;;;;;7390319;19;20744;-47
2022/07/21 08:20:15;;;;;;;7.10;6.40;;;27.50;72.20;;;;;;7386678;19;20439;-50
2022/07/21 08:22:44;;;;;;;6.37;5.77;;;27.50;70.50;;;;;;7382171;19;20372;-51
2022/07/21 08:25:14;;;;;;;7.30;6.60;;;27.50;69.40;;;;;;7385685;19;20380;-50
2022/07/21 08:27:46;;;;;;;8.20;6.30;;;27.30;67.20;;;;;;7384718;19;20396;-50
2022/07/21 08:30:17;;;;;;;23.40;11.30;;;27.00;68.80;;;;;;7387315;19;20363;-50
2022/07/21 08:32:49;;;;;;;17.30;11.30;;;27.00;71.10;;;;;;7389174;19;21029;-50
2022/07/21 08:35:18;;;;;;;19.53;10.13;;;26.90;73.30;;;;;;7387397;19;20387;-50
2022/07/21 08:37:57;;;;;;;10.87;8.67;;;26.80;71.90;;;;;;7389771;19;20384;-50
2022/07/21 08:40:30;;;;;;;17.40;9.83;;;27.00;72.00;;;;;;7385434;19;20959;-49
2022/07/21 08:43:03;;;;;;;10.77;7.30;;;27.10;72.80;;;;;;7386728;19;20387;-50
2022/07/21 08:45:35;;;;;;;7.60;6.30;;;27.40;70.60;;;;;;7388633;19;20936;-50
2022/07/21 08:48:05;;;;;;;22.53;11.03;;;27.30;68.10;;;;;;7385600;19;20392;-50
2022/07/21 08:50:40;;;;;;;17.70;9.60;;;27.50;69.00;;;;;;7387307;19;20759;-47
2022/07/21 08:53:09;;;;;;;16.83;10.53;;;27.60;65.60;;;;;;7386627;19;20372;-47
2022/07/21 08:55:41;;;;;;;20.73;11.77;;;27.50;65.30;;;;;;7384639;19;20738;-47
2022/07/21 08:58:15;;;;;;;13.70;8.87;;;27.30;66.60;;;;;;7388844;19;20364;-47
2022/07/21 09:00:48;;;;;;;10.87;7.97;;;27.10;68.00;;;;;;7386352;19;20466;-47
2022/07/21 09:03:19;;;;;;;7.33;6.63;;;27.20;70.00;;;;;;7387873;19;20368;-47
2022/07/21 09:06:04;;;;;;;8.70;6.20;;;27.50;70.20;;;;;;7387057;19;20401;-47
2022/07/21 09:08:35;;;;;;;8.60;7.00;;;27.80;65.70;;;;;;7381736;19;20383;-47
2022/07/21 09:11:18;;;;;;;11.27;6.90;;;28.00;67.80;;;;;;7384168;19;20372;-47
2022/07/21 09:13:51;;;;;;;8.33;6.37;;;28.40;64.80;;;;;;7384998;19;20380;-47
2022/07/21 09:16:39;;;;;;;9.50;6.67;;;28.60;64.20;;;;;;7377221;19;20365;-47
2022/07/21 09:19:10;;;;;;;10.03;5.47;;;28.90;60.50;;;;;;7375637;19;20396;-47
2022/07/21 09:21:39;;;;;;;8.10;6.93;;;29.10;57.20;;;;;;7373585;19;20372;-50
2022/07/21 09:24:16;;;;;;;6.27;5.33;;;29.20;60.50;;;;;;7383038;19;20379;-50
2022/07/21 09:27:02;;;;;;;6.30;5.70;;;29.30;56.30;;;;;;7384442;19;20391;-51
2022/07/21 09:29:43;;;;;;;6.37;5.67;;;29.40;55.60;;;;;;7383885;19;20376;-51
2022/07/21 09:32:24;;;;;;;7.23;6.50;;;29.40;55.80;;;;;;7378918;19;20423;-50
2022/07/21 09:34:55;;;;;;;5.87;4.93;;;29.60;57.10;;;;;;7384931;19;20439;-51
2022/07/21 09:37:27;;;;;;;8.17;5.97;;;29.40;54.70;;;;;;7384753;19;20372;-51
2022/07/21 09:39:58;;;;;;;9.43;6.87;;;29.20;55.40;;;;;;7383268;19;20520;-50
2022/07/21 09:42:30;;;;;;;5.83;5.23;;;29.30;56.70;;;;;;7380799;19;20372;-50
2022/07/21 09:45:06;;;;;;;6.20;5.60;;;29.70;56.10;;;;;;7378766;19;20390;-50
2022/07/21 09:47:38;;;;;;;6.43;5.73;;;29.70;55.50;;;;;;7382057;19;21251;-51
2022/07/21 09:50:10;;;;;;;6.70;6.10;;;29.80;53.90;;;;;;7381181;19;20379;-50
2022/07/21 09:52:41;;;;;;;5.87;5.33;;;29.60;53.40;;;;;;7386435;19;20487;-50
2022/07/21 09:55:13;;;;;;;5.60;5.10;;;29.80;54.20;;;;;;7388182;19;20384;-51
2022/07/21 09:57:43;;;;;;;7.17;5.77;;;29.90;55.20;;;;;;7381251;19;20467;-50
2022/07/21 10:00:18;;;;;;;5.90;5.37;;;30.10;55.20;;;;;;7381034;19;20563;-50
2022/07/21 10:02:48;;;;;;;5.90;4.90;;;30.30;53.40;;;;;;7383085;19;20371;-51
2022/07/21 10:05:21;;;;;;;5.37;4.67;;;30.50;52.30;;;;;;7385704;19;20451;-51
2022/07/21 10:07:51;;;;;;;6.10;5.50;;;30.50;50.50;;;;;;7379115;19;20384;-50
2022/07/21 10:10:24;;;;;;;5.70;4.87;;;30.60;53.10;;;;;;7371070;19;24503;-51
2022/07/21 10:12:53;;;;;;;6.13;4.97;;;30.40;50.40;;;;;;7380787;19;20430;-51
2022/07/21 10:15:26;;;;;;;5.30;4.80;;;30.50;54.00;;;;;;7384676;19;20728;-51
2022/07/21 10:17:58;;;;;;;6.13;5.37;;;30.60;49.90;;;;;;7387368;19;21052;-51
2022/07/21 10:20:32;;;;;;;13.87;7.43;;;30.80;52.30;;;;;;7386514;19;20405;-50
2022/07/21 10:23:12;;;;;;;5.20;4.70;;;31.30;49.40;;;;;;7388043;19;20378;-51
2022/07/21 10:25:43;;;;;;;5.23;4.73;;;31.60;48.30;;;;;;7387531;19;20388;-50
2022/07/21 10:28:17;;;;;;;4.23;3.83;;;32.00;47.40;;;;;;7383429;19;20387;-50
2022/07/21 10:30:54;;;;;;;8.13;5.90;;;32.30;45.00;;;;;;7383092;19;20371;-51
2022/07/21 10:34:00;;;;;;;7.33;5.13;;;32.50;44.50;;;;;;7382607;19;20936;-51
2022/07/21 10:36:44;;;;;;;4.10;3.70;;;32.50;45.70;;;;;;7386093;19;20932;-51
2022/07/21 10:39:26;;;;;;;4.90;4.50;;;32.20;46.90;;;;;;7386021;19;20380;-51
2022/07/21 10:42:01;;;;;;;7.80;4.63;;;32.10;44.70;;;;;;7388502;19;20384;-51
2022/07/21 10:44:49;;;;;;;5.13;4.43;;;31.80;46.10;;;;;;7381209;19;20942;-51
2022/07/21 10:47:28;;;;;;;5.40;4.80;;;31.80;49.20;;;;;;7379262;19;20397;-51
2022/07/21 10:50:01;;;;;;;5.57;4.03;;;31.90;46.00;;;;;;7383502;19;20384;-51
2022/07/21 10:53:01;;;;;;;5.30;4.00;;;32.00;43.60;;;;;;7384495;19;20418;-50
2022/07/21 10:55:32;;;;;;;3.37;3.07;;;31.70;43.70;;;;;;7384541;19;20384;-51
2022/07/21 10:58:20;;;;;;;5.13;4.63;;;31.00;43.50;;;;;;7382377;19;20424;-50
2022/07/21 11:00:52;;;;;;;6.07;4.63;;;31.10;47.30;;;;;;7384124;19;20465;-51
2022/07/21 11:03:30;;;;;;;4.60;4.20;;;31.20;44.90;;;;;;7384953;19;21107;-52
2022/07/21 11:06:19;;;;;;;10.37;8.67;;;31.10;46.80;;;;;;7383546;19;20423;-50
2022/07/21 11:08:50;;;;;;;4.80;4.37;;;31.20;46.10;;;;;;7382025;19;20372;-51
2022/07/21 11:11:25;;;;;;;5.53;4.43;;;31.00;46.50;;;;;;7385062;19;20708;-50
2022/07/21 11:14:03;;;;;;;6.50;5.03;;;31.00;48.40;;;;;;7383740;19;20380;-51
2022/07/21 11:17:02;;;;;;;5.17;3.70;;;30.80;45.80;;;;;;7383237;19;20368;-51
2022/07/21 11:19:38;;;;;;;4.00;3.70;;;30.50;46.20;;;;;;7384173;19;20364;-50
2022/07/21 11:22:11;;;;;;;6.80;4.93;;;30.40;44.70;;;;;;7382038;19;20420;-50
2022/07/21 11:24:46;;;;;;;4.83;4.30;;;30.60;47.10;;;;;;7381853;19;21006;-50
2022/07/21 11:27:18;;;;;;;4.23;3.83;;;30.90;46.70;;;;;;7379562;19;20445;-50
2022/07/21 11:29:50;;;;;;;4.73;4.30;;;31.30;45.70;;;;;;7381664;19;20417;-51
2022/07/21 11:32:20;;;;;;;4.80;4.03;;;31.20;47.60;;;;;;7382792;19;20379;-51
2022/07/21 11:34:54;;;;;;;4.57;4.13;;;31.30;45.40;;;;;;7384531;19;20735;-51
2022/07/21 11:37:30;;;;;;;5.27;4.77;;;31.30;45.80;;;;;;7381453;19;20463;-51
2022/07/21 11:40:01;;;;;;;5.63;4.60;;;31.10;43.40;;;;;;7382093;19;20363;-51
2022/07/21 11:42:31;;;;;;;6.13;4.30;;;31.10;46.40;;;;;;7384597;19;20384;-51
2022/07/21 11:45:01;;;;;;;3.67;3.37;;;30.90;46.60;;;;;;7380924;19;20917;-52
2022/07/21 11:47:31;;;;;;;4.30;3.90;;;30.80;45.30;;;;;;7384059;19;20395;-51
2022/07/21 11:50:06;;;;;;;4.00;3.70;;;30.70;46.70;;;;;;7384354;19;20372;-51
2022/07/21 11:52:38;;;;;;;7.53;4.13;;;30.50;45.80;;;;;;7380508;19;20375;-51
2022/07/21 11:55:11;;;;;;;7.20;4.63;;;30.30;46.10;;;;;;7383293;19;20373;-51
2022/07/21 11:57:44;;;;;;;4.20;3.83;;;30.20;46.20;;;;;;7383476;19;20920;-51
2022/07/21 12:00:18;;;;;;;5.57;3.90;;;30.10;47.00;;;;;;7378126;19;20798;-47
2022/07/21 12:02:48;;;;;;;4.60;4.00;;;30.00;46.10;;;;;;7389078;19;20375;-47
2022/07/21 12:05:24;;;;;;;4.17;3.83;;;29.90;47.50;;;;;;7391036;19;20448;-47
2022/07/21 12:07:56;;;;;;;4.60;4.20;;;29.90;48.30;;;;;;7388673;19;20395;-47
2022/07/21 12:10:28;;;;;;;4.70;4.10;;;30.00;50.50;;;;;;7386910;19;20384;-47
2022/07/21 12:13:02;;;;;;;5.00;4.50;;;30.00;50.10;;;;;;7389014;19;20387;-46
2022/07/21 12:15:33;;;;;;;4.00;3.70;;;30.10;48.30;;;;;;7389520;19;20412;-47
2022/07/21 12:18:05;;;;;;;5.50;4.10;;;30.00;45.40;;;;;;7390740;19;20380;-47
2022/07/21 12:20:39;;;;;;;4.80;4.30;;;30.20;45.80;;;;;;7391791;19;20372;-47
2022/07/21 12:23:22;;;;;;;4.07;3.50;;;30.50;49.90;;;;;;7388782;19;20399;-47
2022/07/21 12:25:52;;;;;;;5.43;4.50;;;30.90;45.20;;;;;;7391603;19;20429;-46
2022/07/21 12:28:22;;;;;;;4.60;4.00;;;31.20;44.20;;;;;;7387670;19;20373;-47
2022/07/21 12:30:54;;;;;;;4.17;3.77;;;31.20;44.80;;;;;;7388720;19;20397;-51
2022/07/21 12:33:30;;;;;;;4.90;4.30;;;31.20;47.70;;;;;;7389385;19;20887;-51
2022/07/21 12:36:06;;;;;;;4.53;4.10;;;31.10;44.70;;;;;;7391196;19;20792;-50
2022/07/21 12:38:39;;;;;;;5.53;5.03;;;31.00;45.80;;;;;;7388750;19;20380;-51
2022/07/21 12:41:13;;;;;;;4.13;3.83;;;30.90;45.30;;;;;;7389196;19;20424;-50
2022/07/21 12:43:42;;;;;;;4.93;4.50;;;30.80;46.20;;;;;;7386594;19;20376;-51
2022/07/21 12:46:15;;;;;;;5.13;4.67;;;30.80;49.10;;;;;;7388226;19;20408;-51
2022/07/21 12:48:45;;;;;;;5.03;4.53;;;30.70;44.40;;;;;;7389152;19;20828;-51
2022/07/21 12:51:24;;;;;;;5.10;4.60;;;30.60;44.90;;;;;;7384689;19;20388;-51
2022/07/21 12:53:55;;;;;;;4.90;4.37;;;30.70;45.80;;;;;;7389557;19;20431;-50
2022/07/21 12:56:27;;;;;;;4.80;4.40;;;30.80;47.70;;;;;;7386019;19;20411;-50
2022/07/21 12:58:58;;;;;;;4.40;4.00;;;30.90;46.30;;;;;;7386977;19;20932;-50
2022/07/21 13:01:30;;;;;;;6.03;5.30;;;31.10;47.30;;;;;;7381107;19;20425;-50
2022/07/21 13:04:05;;;;;;;6.17;5.33;;;31.20;46.10;;;;;;7388581;19;20380;-50
2022/07/21 13:06:37;;;;;;;5.30;4.60;;;31.30;45.80;;;;;;7388111;19;20444;-50